createdAt,value
2019-01-20T00:16:44.574Z,32.49
2019-01-20T00:19:17.159Z,36.28
2019-01-20T00:21:51.467Z,42.26
2019-01-20T00:24:24.273Z,45.88
2019-01-20T00:26:57.382Z,48.75
2019-01-20T00:29:31.604Z,53.26
2019-01-20T00:32:05.218Z,55.76
2019-01-20T00:34:42.695Z,58.17
2019-01-20T00:37:17.106Z,60.88
2019-01-20T00:39:50.355Z,63.09
2019-01-20T00:42:25.490Z,64.13
2019-01-20T00:45:02.718Z,64.23
2019-01-20T00:47:40.225Z,65.53
2019-01-20T00:50:17.713Z,66.26
2019-01-20T00:52:55.300Z,66.26
2019-01-20T00:55:29.712Z,67.94
2019-01-20T00:58:06.387Z,68.08
2019-01-20T01:00:41.662Z,68.97
2019-01-20T01:03:15.478Z,68.65
2019-01-20T01:05:49.781Z,68.89
2019-01-20T01:08:30.055Z,69.02
2019-01-20T01:11:06.860Z,69.80
2019-01-20T01:13:42.453Z,68.95
2019-01-20T01:16:17.092Z,69.75
2019-01-20T01:18:56.056Z,70.15
2019-01-20T01:21:27.934Z,70.64
2019-01-20T01:24:01.222Z,71.37
2019-01-20T01:26:34.373Z,71.28
2019-01-20T01:29:07.498Z,71.63
2019-01-20T01:31:43.217Z,71.93
2019-01-20T01:34:16.491Z,72.15
2019-01-20T01:36:52.818Z,72.51
2019-01-20T01:39:25.760Z,72.51
2019-01-20T01:41:58.910Z,73.11
2019-01-20T01:44:32.250Z,73.44
2019-01-20T01:47:05.004Z,73.80
2019-01-20T01:49:38.333Z,73.74
2019-01-20T01:52:11.406Z,74.16
2019-01-20T01:54:44.984Z,74.49
2019-01-20T01:57:17.910Z,74.33
2019-01-20T01:59:51.517Z,74.81
2019-01-20T02:02:24.812Z,74.91
2019-01-20T02:04:57.716Z,74.94
2019-01-20T02:07:30.728Z,75.11
2019-01-20T02:10:03.999Z,75.25
2019-01-20T02:12:37.140Z,75.19
2019-01-20T02:15:11.608Z,74.77
2019-01-20T02:17:45.017Z,75.05
2019-01-20T02:20:26.363Z,75.07
2019-01-20T02:22:59.246Z,75.08
2019-01-20T02:25:32.666Z,74.85
2019-01-20T02:28:05.619Z,74.63
2019-01-20T02:30:39.156Z,75.29
2019-01-20T02:33:12.049Z,74.80
2019-01-20T02:35:45.641Z,75.16
2019-01-20T02:38:18.796Z,74.89
2019-01-20T02:40:51.912Z,75.06
2019-01-20T02:43:24.883Z,75.01
2019-01-20T02:45:58.338Z,75.14
2019-01-20T02:48:31.513Z,75.21
2019-01-20T02:51:24.885Z,75.48
2019-01-20T02:53:58.330Z,75.56
2019-01-20T02:56:31.647Z,75.52
2019-01-20T02:59:05.243Z,75.75
2019-01-20T03:01:38.722Z,75.92
2019-01-20T03:04:11.583Z,76.26
2019-01-20T03:06:43.603Z,76.16
2019-01-20T03:09:18.753Z,76.29
2019-01-20T03:11:50.983Z,76.17
2019-01-20T03:14:23.794Z,76.45
2019-01-20T03:16:56.951Z,76.33
2019-01-20T03:19:29.875Z,76.61
2019-01-20T03:22:03.419Z,76.61
2019-01-20T03:24:36.504Z,76.67
2019-01-20T03:27:10.386Z,76.61
2019-01-20T03:29:43.273Z,76.86
2019-01-20T03:32:16.509Z,76.63
2019-01-20T03:34:49.676Z,76.88
2019-01-20T03:37:22.675Z,76.63
2019-01-20T03:39:55.593Z,76.59
2019-01-20T03:42:28.872Z,76.68
2019-01-20T03:45:02.042Z,76.91
2019-01-20T03:47:35.017Z,76.84
2019-01-20T03:50:11.292Z,76.83
2019-01-20T03:52:44.801Z,76.73
2019-01-20T03:55:19.218Z,76.54
2019-01-20T03:57:52.657Z,76.75
2019-01-20T04:00:26.279Z,76.69
2019-01-20T04:03:00.591Z,76.49
2019-01-20T04:05:33.412Z,76.78
2019-01-20T04:08:06.426Z,76.62
2019-01-20T04:10:39.410Z,76.91
2019-01-20T04:13:12.649Z,77.11
2019-01-20T04:15:45.748Z,77.08
2019-01-20T04:18:18.686Z,76.96
2019-01-20T04:20:51.438Z,77.03
2019-01-20T04:23:25.124Z,77.10
2019-01-20T04:25:58.309Z,77.21
2019-01-20T04:28:31.791Z,77.17
2019-01-20T04:31:04.946Z,77.21
2019-01-20T04:33:38.370Z,77.08
2019-01-20T04:36:11.010Z,77.03
2019-01-20T04:38:44.404Z,76.84
2019-01-20T04:41:17.367Z,76.93
2019-01-20T04:43:50.128Z,76.71
2019-01-20T04:46:23.096Z,76.89
2019-01-20T04:48:56.008Z,76.71
2019-01-20T04:51:29.061Z,76.99
2019-01-20T04:54:02.689Z,76.88
2019-01-20T04:56:38.356Z,76.94
2019-01-20T04:59:10.542Z,76.94
2019-01-20T05:01:46.369Z,77.04
2019-01-20T05:04:18.055Z,76.63
2019-01-20T05:06:51.077Z,76.73
2019-01-20T05:09:24.336Z,76.77
2019-01-20T05:11:56.911Z,76.66
2019-01-20T05:14:30.023Z,76.63
2019-01-20T05:17:02.704Z,76.67
2019-01-20T05:19:35.891Z,76.51
2019-01-20T05:22:08.719Z,76.68
2019-01-20T05:24:45.298Z,76.70
2019-01-20T05:27:18.121Z,76.93
2019-01-20T05:29:51.159Z,76.71
2019-01-20T05:32:24.090Z,76.76
2019-01-20T05:34:57.226Z,76.83
2019-01-20T05:37:29.688Z,77.06
2019-01-20T05:40:02.775Z,77.39
2019-01-20T05:42:35.611Z,77.13
2019-01-20T05:45:10.803Z,76.90
2019-01-20T05:47:43.588Z,77.14
2019-01-20T05:50:17.388Z,77.28
2019-01-20T05:52:50.252Z,77.35
2019-01-20T05:55:24.006Z,77.58
2019-01-20T05:57:57.107Z,77.49
2019-01-20T06:00:31.320Z,77.48
2019-01-20T06:03:04.224Z,77.52
2019-01-20T06:05:37.582Z,77.27
2019-01-20T06:08:10.402Z,77.53
2019-01-20T06:10:43.728Z,77.61
2019-01-20T06:13:16.384Z,77.87
2019-01-20T06:15:49.573Z,77.44
2019-01-20T06:18:22.513Z,77.52
2019-01-20T06:20:55.689Z,77.52
2019-01-20T06:23:28.295Z,77.31
2019-01-20T06:26:01.964Z,77.63
2019-01-20T06:28:35.616Z,77.09
2019-01-20T06:31:08.902Z,77.33
2019-01-20T06:33:41.718Z,77.24
2019-01-20T06:36:15.081Z,77.30
2019-01-20T06:38:49.268Z,76.90
2019-01-20T06:41:24.128Z,76.98
2019-01-20T06:43:56.842Z,77.09
2019-01-20T06:46:30.324Z,77.12
2019-01-20T06:49:02.998Z,76.66
2019-01-20T06:51:36.435Z,77.00
2019-01-20T06:54:09.852Z,77.02
2019-01-20T06:56:43.533Z,77.21
2019-01-20T06:59:16.357Z,77.25
2019-01-20T07:01:50.836Z,77.57
2019-01-20T07:04:23.837Z,77.36
2019-01-20T07:06:56.966Z,77.62
2019-01-20T07:09:33.878Z,77.39
2019-01-20T07:12:04.839Z,77.43
2019-01-20T07:14:38.023Z,78.08
2019-01-20T07:17:11.299Z,77.30
2019-01-20T07:19:44.321Z,77.56
2019-01-20T07:22:17.741Z,77.44
2019-01-20T07:24:50.595Z,77.52
2019-01-20T07:27:24.135Z,77.62
2019-01-20T07:30:00.861Z,78.05
2019-01-20T07:32:34.499Z,77.82
2019-01-20T07:35:07.910Z,77.27
2019-01-20T07:37:41.465Z,77.79
2019-01-20T07:40:16.103Z,77.79
2019-01-20T07:42:49.495Z,77.96
2019-01-20T07:45:22.554Z,78.04
2019-01-20T07:47:56.224Z,77.87
2019-01-20T07:50:29.058Z,78.14
2019-01-20T07:53:02.865Z,77.92
2019-01-20T07:55:36.005Z,77.69
2019-01-20T07:58:09.431Z,77.62
2019-01-20T08:00:42.068Z,77.62
2019-01-20T08:03:15.724Z,77.34
2019-01-20T08:05:48.156Z,77.41
2019-01-20T08:08:26.069Z,77.70
2019-01-20T08:10:59.773Z,77.92
2019-01-20T08:13:34.040Z,78.05
2019-01-20T08:16:13.691Z,77.66
2019-01-20T08:18:47.464Z,78.11
2019-01-20T08:21:20.640Z,78.09
2019-01-20T08:23:53.879Z,77.53
2019-01-20T08:26:26.774Z,76.95
2019-01-20T08:29:01.603Z,77.39
2019-01-20T08:31:34.687Z,77.49
2019-01-20T08:34:07.979Z,77.26
2019-01-20T08:36:41.209Z,77.45
2019-01-20T08:39:15.081Z,77.45
2019-01-20T08:41:49.262Z,77.53
2019-01-20T08:44:23.171Z,77.20
2019-01-20T08:46:56.788Z,77.20
2019-01-20T08:49:30.229Z,77.42
2019-01-20T08:52:03.235Z,77.42
2019-01-20T08:54:36.443Z,77.41
2019-01-20T08:57:09.564Z,78.24
2019-01-20T08:59:43.823Z,78.17
2019-01-20T09:02:16.837Z,78.29
2019-01-20T09:04:50.348Z,78.61
2019-01-20T09:07:21.948Z,79.00
2019-01-20T09:09:55.681Z,79.27
2019-01-20T09:12:28.814Z,79.46
2019-01-20T09:15:02.592Z,79.96
2019-01-20T09:17:35.504Z,80.19
2019-01-20T09:20:10.298Z,80.69
2019-01-20T09:22:43.328Z,80.42
2019-01-20T09:25:20.307Z,80.25
2019-01-20T09:27:53.623Z,80.51
2019-01-20T09:30:30.543Z,80.50
2019-01-20T09:33:08.814Z,80.42
2019-01-20T09:35:42.628Z,80.24
2019-01-20T09:38:17.955Z,79.85
2019-01-20T09:40:57.243Z,80.35
2019-01-20T09:43:31.406Z,80.01
2019-01-20T09:46:07.696Z,80.20
2019-01-20T09:48:42.032Z,79.93
2019-01-20T09:51:18.150Z,80.00
2019-01-20T09:53:57.924Z,80.00
2019-01-20T09:56:37.984Z,80.24
2019-01-20T09:59:09.634Z,80.62
2019-01-20T10:01:42.565Z,80.79
2019-01-20T10:04:15.498Z,80.82
2019-01-20T10:06:48.700Z,81.19
2019-01-20T10:09:21.545Z,81.11
2019-01-20T10:11:54.820Z,81.03
2019-01-20T10:14:27.360Z,81.13
2019-01-20T10:17:00.893Z,81.14
2019-01-20T10:19:33.724Z,80.53
2019-01-20T10:22:07.787Z,80.62
2019-01-20T10:24:40.457Z,80.55
2019-01-20T10:27:13.756Z,80.33
2019-01-20T10:29:49.925Z,80.13
2019-01-20T10:32:22.332Z,79.94
2019-01-20T10:34:55.842Z,80.30
2019-01-20T10:37:28.432Z,80.59
2019-01-20T10:40:05.888Z,80.79
2019-01-20T10:42:39.049Z,80.81
2019-01-20T10:45:12.898Z,80.50
2019-01-20T10:47:52.680Z,80.54
2019-01-20T10:50:25.834Z,80.72
2019-01-20T10:52:59.022Z,80.83
2019-01-20T10:55:31.649Z,80.83
2019-01-20T10:58:05.342Z,80.43
2019-01-20T11:00:42.989Z,80.47
2019-01-20T11:03:16.669Z,80.05
2019-01-20T11:05:49.654Z,80.12
2019-01-20T11:08:22.935Z,80.18
2019-01-20T11:10:55.784Z,80.20
2019-01-20T11:13:29.030Z,80.46
2019-01-20T11:16:01.798Z,80.27
2019-01-20T11:18:35.283Z,80.26
2019-01-20T11:21:07.846Z,80.45
2019-01-20T11:23:44.610Z,80.59
2019-01-20T11:26:17.426Z,80.66
2019-01-20T11:28:50.624Z,81.42
2019-01-20T11:31:23.423Z,81.42
2019-01-20T11:34:00.079Z,81.27
2019-01-20T11:36:31.729Z,81.30
2019-01-20T11:39:05.892Z,81.54
2019-01-20T11:41:38.721Z,81.67
2019-01-20T11:44:16.857Z,81.98
2019-01-20T11:46:45.987Z,82.08
2019-01-20T11:49:18.028Z,82.31
2019-01-20T11:51:50.844Z,82.57
2019-01-20T11:54:25.423Z,82.76
2019-01-20T11:56:58.316Z,82.37
2019-01-20T11:59:32.840Z,82.46
2019-01-20T12:02:05.453Z,82.30
2019-01-20T12:04:38.707Z,82.47
2019-01-20T12:07:11.796Z,82.27
2019-01-20T12:09:45.016Z,82.07
2019-01-20T12:12:17.270Z,81.53
2019-01-20T12:14:50.542Z,81.81
2019-01-20T12:17:23.863Z,81.76
2019-01-20T12:19:57.135Z,80.98
2019-01-20T12:22:29.947Z,80.96
2019-01-20T12:25:07.560Z,81.16
2019-01-20T12:27:40.792Z,81.13
2019-01-20T12:30:17.090Z,81.20
2019-01-20T12:32:52.998Z,80.72
2019-01-20T12:35:27.723Z,80.42
2019-01-20T12:38:02.582Z,81.02
2019-01-20T12:40:37.061Z,80.82
2019-01-20T12:43:09.829Z,80.62
2019-01-20T12:45:42.904Z,80.67
2019-01-20T12:48:15.903Z,81.08
2019-01-20T12:50:50.372Z,81.18
2019-01-20T12:53:23.256Z,81.08
2019-01-20T12:55:55.947Z,80.76
2019-01-20T12:58:29.419Z,80.76
2019-01-20T13:01:02.831Z,81.08
2019-01-20T13:03:35.684Z,80.88
2019-01-20T13:06:09.492Z,81.43
2019-01-20T13:08:42.827Z,81.54
2019-01-20T13:11:16.468Z,81.18
2019-01-20T13:13:49.356Z,81.60
2019-01-20T13:16:22.518Z,81.98
2019-01-20T13:18:55.823Z,81.44
2019-01-20T13:21:29.983Z,81.95
2019-01-20T13:24:03.005Z,81.61
2019-01-20T13:26:36.483Z,81.90
2019-01-20T13:29:09.583Z,82.02
2019-01-20T13:31:42.749Z,82.02
2019-01-20T13:34:15.840Z,81.79
2019-01-20T13:36:49.772Z,82.21
2019-01-20T13:39:26.439Z,82.30
2019-01-20T13:41:57.863Z,82.30
2019-01-20T13:44:32.385Z,82.51
2019-01-20T13:47:05.611Z,82.60
2019-01-20T13:49:46.186Z,82.58
2019-01-20T13:52:19.277Z,82.58
2019-01-20T13:54:52.392Z,81.72
2019-01-20T13:57:25.082Z,81.78
2019-01-20T13:59:58.179Z,81.71
2019-01-20T14:02:32.053Z,82.04
2019-01-20T14:05:04.888Z,82.14
2019-01-20T14:07:38.492Z,82.20
2019-01-20T14:10:13.267Z,82.15
2019-01-20T14:12:46.802Z,82.26
2019-01-20T14:15:20.074Z,82.13
2019-01-20T14:17:53.524Z,81.92
2019-01-20T14:20:27.916Z,81.82
2019-01-20T14:23:00.995Z,81.76
2019-01-20T14:25:34.224Z,81.54
2019-01-20T14:28:07.354Z,81.59
2019-01-20T14:30:43.340Z,81.72
2019-01-20T14:33:18.747Z,81.72
2019-01-20T14:35:54.993Z,81.66
2019-01-20T14:38:35.744Z,81.41
2019-01-20T14:41:18.962Z,81.60
2019-01-20T14:43:53.549Z,81.60
2019-01-20T14:46:26.438Z,81.80
2019-01-20T14:48:59.825Z,81.96
2019-01-20T14:51:32.605Z,82.17
2019-01-20T14:54:05.811Z,81.93
2019-01-20T14:56:37.782Z,81.69
2019-01-20T14:59:11.309Z,81.75
2019-01-20T15:01:44.669Z,81.99
2019-01-20T15:04:18.041Z,81.99
2019-01-20T15:06:50.989Z,80.95
2019-01-20T15:09:34.460Z,80.64
2019-01-20T15:12:07.929Z,79.78
2019-01-20T15:14:46.243Z,79.65
2019-01-20T15:17:19.580Z,80.01
2019-01-20T15:19:54.112Z,80.10
2019-01-20T15:22:31.048Z,79.90
2019-01-20T15:25:05.200Z,79.98
2019-01-20T15:27:39.905Z,80.11
2019-01-20T15:30:25.419Z,80.24
2019-01-20T15:32:58.255Z,80.09
2019-01-20T15:35:31.336Z,82.27
2019-01-20T15:38:04.458Z,82.27
2019-01-20T15:40:38.488Z,80.68
2019-01-20T15:43:11.412Z,80.64
2019-01-20T15:45:44.331Z,77.23
2019-01-20T15:48:17.041Z,77.23
2019-01-20T15:50:50.461Z,77.06
2019-01-20T15:53:23.583Z,77.12
2019-01-20T15:55:57.148Z,77.36
2019-01-20T15:58:29.959Z,77.49
2019-01-20T16:01:02.622Z,78.17
2019-01-20T16:03:41.787Z,78.77
2019-01-20T16:06:15.223Z,79.46
2019-01-20T16:08:49.846Z,79.46
2019-01-20T16:11:25.344Z,79.46
2019-01-20T16:14:01.230Z,79.07
2019-01-20T16:16:35.384Z,79.07
2019-01-20T16:19:11.739Z,78.16
2019-01-20T16:21:47.430Z,77.83
2019-01-20T16:24:41.742Z,77.74
2019-01-20T16:27:17.327Z,77.91
2019-01-20T16:29:51.848Z,77.81
2019-01-20T16:32:36.906Z,77.81
2019-01-20T16:35:14.366Z,77.86
2019-01-20T16:37:53.141Z,78.05
2019-01-20T16:40:28.568Z,78.36
2019-01-20T16:43:05.539Z,78.36
2019-01-20T16:45:43.147Z,78.01
2019-01-20T16:48:17.541Z,77.83
2019-01-20T16:51:01.552Z,77.86
2019-01-20T16:53:35.640Z,77.79
2019-01-20T16:56:10.742Z,77.60
2019-01-20T16:58:45.579Z,77.85
2019-01-20T17:01:19.928Z,77.76
2019-01-20T17:03:55.248Z,77.76
2019-01-20T17:06:29.346Z,77.95
2019-01-20T17:09:03.955Z,77.89
2019-01-20T17:11:36.190Z,78.07
2019-01-20T17:14:10.225Z,77.86
2019-01-20T17:16:44.185Z,77.60
2019-01-20T17:19:23.080Z,77.44
2019-01-20T17:21:57.737Z,77.44
2019-01-20T17:24:31.829Z,77.70
2019-01-20T17:27:07.281Z,77.70
2019-01-20T17:29:44.135Z,77.58
2019-01-20T17:32:18.939Z,77.13
2019-01-20T17:34:52.977Z,77.07
2019-01-20T17:37:26.272Z,76.93
2019-01-20T17:40:00.726Z,76.93
2019-01-20T17:42:35.052Z,77.16
2019-01-20T17:45:09.692Z,76.66
2019-01-20T17:47:42.490Z,77.04
2019-01-20T17:50:19.633Z,77.81
2019-01-20T17:52:52.273Z,77.81
2019-01-20T17:55:30.272Z,77.21
2019-01-20T17:58:04.019Z,77.02
2019-01-20T18:00:40.145Z,77.29
2019-01-20T18:03:14.780Z,77.02
2019-01-20T18:05:52.267Z,77.14
2019-01-20T18:08:29.454Z,76.88
2019-01-20T18:11:06.473Z,76.64
2019-01-20T18:13:40.954Z,76.77
2019-01-20T18:16:15.665Z,76.58
2019-01-20T18:18:52.367Z,76.67
2019-01-20T18:21:29.341Z,76.45
2019-01-20T18:24:02.625Z,76.36
2019-01-20T18:26:39.374Z,76.08
2019-01-20T18:29:18.406Z,76.10
2019-01-20T18:31:56.840Z,76.27
2019-01-20T18:34:36.101Z,76.17
2019-01-20T18:37:12.105Z,75.91
2019-01-20T18:39:47.373Z,76.04
2019-01-20T18:42:21.275Z,75.95
2019-01-20T18:44:55.247Z,75.74
2019-01-20T18:47:29.747Z,75.81
2019-01-20T18:50:04.079Z,75.16
2019-01-20T18:52:39.647Z,74.85
2019-01-20T18:55:15.993Z,74.65
2019-01-20T18:57:53.431Z,74.81
2019-01-20T19:00:33.705Z,74.68
2019-01-20T19:03:08.502Z,74.45
2019-01-20T19:05:44.357Z,74.44
2019-01-20T19:08:18.797Z,74.58
2019-01-20T19:10:52.988Z,74.35
2019-01-20T19:13:26.497Z,74.61
2019-01-20T19:16:00.901Z,74.40
2019-01-20T19:18:36.664Z,74.51
2019-01-20T19:21:29.229Z,74.51
2019-01-20T19:23:56.774Z,74.27
2019-01-20T19:26:34.143Z,74.04
2019-01-20T19:29:27.065Z,74.16
2019-01-20T19:32:02.365Z,74.40
2019-01-20T19:34:36.200Z,74.40
2019-01-20T19:37:10.866Z,74.62
2019-01-20T19:39:50.385Z,74.16
2019-01-20T19:42:19.418Z,74.38
2019-01-20T19:44:57.334Z,74.10
2019-01-20T19:47:32.042Z,74.36
2019-01-20T19:50:08.222Z,74.83
2019-01-20T19:52:43.106Z,74.81
2019-01-20T19:55:22.222Z,74.38
2019-01-20T19:58:08.023Z,74.56
2019-01-20T20:00:45.926Z,74.56
2019-01-20T20:03:20.462Z,74.74
2019-01-20T20:05:54.855Z,74.69
2019-01-20T20:08:30.715Z,74.62
2019-01-20T20:11:07.900Z,74.00
2019-01-20T20:13:43.248Z,74.00
2019-01-20T20:16:23.362Z,73.98
2019-01-20T20:18:53.724Z,74.45
2019-01-20T20:21:30.185Z,74.57
2019-01-20T20:24:04.558Z,74.93
2019-01-20T20:26:38.968Z,74.54
2019-01-20T20:29:12.885Z,74.56
2019-01-20T20:31:46.607Z,73.84
2019-01-20T20:34:20.321Z,72.81
2019-01-20T20:36:55.295Z,73.20
2019-01-20T20:39:30.979Z,73.25
2019-01-20T20:42:06.124Z,73.29
2019-01-20T20:44:44.229Z,73.18
2019-01-20T20:47:18.431Z,73.18
2019-01-20T20:49:52.844Z,73.29
2019-01-20T20:52:28.618Z,73.36
2019-01-20T20:55:03.396Z,73.10
2019-01-20T20:57:38.070Z,73.58
2019-01-20T21:00:16.970Z,73.66
2019-01-20T21:02:53.237Z,73.56
2019-01-20T21:05:32.157Z,73.89
2019-01-20T21:08:06.590Z,73.90
2019-01-20T21:10:40.074Z,73.68
2019-01-20T21:13:15.112Z,73.51
2019-01-20T21:15:47.655Z,73.41
2019-01-20T21:18:22.219Z,73.29
2019-01-20T21:23:54.165Z,73.16
2019-01-20T21:26:28.209Z,73.20
2019-01-20T21:29:03.578Z,73.39
2019-01-20T21:31:38.552Z,73.25
2019-01-20T21:34:14.613Z,73.19
2019-01-20T21:36:49.302Z,73.13
2019-01-20T21:39:24.567Z,73.04
2019-01-20T21:42:02.705Z,73.17
2019-01-20T21:44:36.871Z,72.97
2019-01-20T21:47:15.908Z,73.26
2019-01-20T21:49:51.321Z,72.82
2019-01-20T21:52:28.839Z,72.68
2019-01-20T21:55:05.585Z,72.78
2019-01-20T21:57:33.943Z,72.60
2019-01-20T22:00:02.325Z,72.86
2019-01-20T22:02:32.320Z,72.85
2019-01-20T22:05:00.776Z,72.64
2019-01-20T22:07:33.530Z,72.46
2019-01-20T22:10:07.511Z,72.75
2019-01-20T22:12:40.353Z,72.51
2019-01-20T22:15:14.061Z,72.41
2019-01-20T22:17:46.601Z,72.27
2019-01-20T22:20:20.707Z,72.20
2019-01-20T22:22:53.739Z,71.86
2019-01-20T22:25:26.891Z,72.08
2019-01-20T22:27:59.275Z,72.16
2019-01-20T22:30:32.467Z,72.17
2019-01-20T22:33:06.384Z,72.45
2019-01-20T22:35:41.331Z,72.60
2019-01-20T22:38:16.113Z,72.60
2019-01-20T22:40:53.163Z,72.66
2019-01-20T22:43:27.230Z,72.75
2019-01-20T22:46:00.333Z,72.96
2019-01-20T22:48:36.010Z,72.98
2019-01-20T22:51:14.642Z,72.88
2019-01-20T22:53:50.164Z,73.00
2019-01-20T22:56:24.613Z,73.11
2019-01-20T22:58:57.287Z,73.09
2019-01-20T23:01:30.453Z,73.19
2019-01-20T23:04:02.804Z,73.18
2019-01-20T23:06:36.008Z,73.29
2019-01-20T23:09:09.696Z,73.24
2019-01-20T23:11:42.994Z,73.15
2019-01-20T23:14:19.216Z,73.21
2019-01-20T23:16:53.553Z,73.00
2019-01-20T23:19:26.451Z,73.00
2019-01-20T23:21:58.420Z,73.36
2019-01-20T23:24:31.200Z,73.08
2019-01-20T23:27:04.569Z,73.03
2019-01-20T23:29:37.625Z,73.30
2019-01-20T23:32:11.084Z,73.13
2019-01-20T23:34:44.723Z,72.96
2019-01-20T23:37:17.690Z,73.23
2019-01-20T23:39:50.399Z,73.12
2019-01-20T23:42:23.513Z,73.26
2019-01-20T23:44:56.295Z,72.91
2019-01-20T23:47:29.450Z,73.14
2019-01-20T23:50:02.233Z,73.25
2019-01-20T23:52:35.631Z,73.25
2019-01-20T23:55:08.782Z,73.26
2019-01-20T23:57:40.806Z,73.41
